Time;durP1;ratioP1;P1;durP2;ratioP2;P2;SDS_P1;SDS_P2;PMS_P1;PMS_P2;Temp;Humidity;BMP_temperature;BMP_pressure;BME280_temperature;BME280_humidity;BME280_pressure;Samples;Min_cycle;Max_cycle;Signal;HPM_P1;HPM_P2
2022/01/21 00:00:46;;;;;;;30.30;7.28;;;;;;;-2.09;100.00;103373.28;5324603;27;20542;-84
2022/01/21 00:03:18;;;;;;;49.28;14.27;;;;;;;-2.06;100.00;103375.91;5317886;28;20484;-84
2022/01/21 00:05:49;;;;;;;48.53;14.57;;;;;;;-2.00;100.00;103372.44;5327803;27;20075;-84
2022/01/21 00:08:21;;;;;;;29.13;7.80;;;;;;;-2.14;100.00;103372.41;5325500;27;20085;-84
2022/01/21 00:10:52;;;;;;;125.00;38.15;;;;;;;-1.84;100.00;103376.81;5328902;27;20464;-84
2022/01/21 00:13:33;;;;;;;33.30;9.15;;;;;;;-2.16;100.00;103380.25;5329260;27;20361;-84
2022/01/21 00:16:07;;;;;;;36.17;8.32;;;;;;;-2.18;100.00;103373.28;5326192;27;20034;-84
2022/01/21 00:18:40;;;;;;;41.45;12.10;;;;;;;-1.83;100.00;103375.91;5325830;28;20143;-84
2022/01/21 00:32:33;;;;;;;30.65;6.63;;;;;;;-1.74;100.00;103382.91;5328028;28;20024;-84
2022/01/21 00:35:06;;;;;;;61.33;19.58;;;;;;;-1.72;100.00;103383.75;5328562;27;20495;-84
2022/01/21 00:37:38;;;;;;;37.10;7.35;;;;;;;-1.86;100.00;103378.53;5321685;28;20036;-84
2022/01/21 00:40:14;;;;;;;32.10;9.95;;;;;;;-2.01;100.00;103361.09;5328393;27;20132;-84
2022/01/21 00:43:11;;;;;;;32.17;8.37;;;;;;;-2.08;100.00;103359.38;5327718;27;20042;-84
2022/01/21 00:45:42;;;;;;;52.10;15.18;;;;;;;-2.03;100.00;103359.34;5325559;28;21796;-84
2022/01/21 00:48:15;;;;;;;51.75;13.73;;;;;;;-1.91;100.00;103362.84;5322292;28;20027;-84
2022/01/21 00:50:47;;;;;;;121.95;34.97;;;;;;;-1.78;100.00;103374.19;5327875;27;20230;-84
2022/01/21 00:53:19;;;;;;;39.00;11.93;;;;;;;-2.09;100.00;103362.84;5327060;27;20210;-84
2022/01/21 00:55:50;;;;;;;55.45;14.43;;;;;;;-2.19;100.00;103375.06;5327519;27;20035;-84
2022/01/21 00:58:21;;;;;;;116.47;30.10;;;;;;;-2.03;100.00;103367.19;5327228;27;20379;-84
2022/01/21 01:00:53;;;;;;;44.33;10.70;;;;;;;-2.13;100.00;103376.78;5327949;27;20421;-84
2022/01/21 01:03:24;;;;;;;109.32;32.75;;;;;;;-1.87;100.00;103382.03;5326800;27;20472;-84
2022/01/21 01:05:56;;;;;;;105.05;30.73;;;;;;;-1.98;100.00;103374.19;5326914;27;20020;-85
2022/01/21 01:08:28;;;;;;;99.30;24.42;;;;;;;-2.22;100.00;103385.50;5324216;27;20065;-84
2022/01/21 01:11:16;;;;;;;41.15;11.18;;;;;;;-2.22;100.00;103395.09;5326799;27;20020;-84
2022/01/21 01:22:19;;;;;;;87.32;22.73;;;;;;;-2.49;100.00;103368.91;5326814;27;20476;-84
2022/01/21 01:27:41;;;;;;;84.30;23.92;;;;;;;-2.22;100.00;103377.66;5326340;27;20031;-84
2022/01/21 01:30:16;;;;;;;102.55;28.30;;;;;;;-2.51;100.00;103359.28;5327076;27;20091;-84
2022/01/21 01:32:50;;;;;;;90.20;23.73;;;;;;;-2.28;100.00;103369.78;5327701;27;20393;-84
2022/01/21 01:35:22;;;;;;;63.17;16.67;;;;;;;-2.41;100.00;103371.50;5327714;27;20496;-84
2022/01/21 01:40:52;;;;;;;117.97;31.08;;;;;;;-2.01;100.00;103355.00;5327283;27;20035;-84
2022/01/21 01:51:37;;;;;;;34.05;6.18;;;;;;;-2.21;100.00;103370.66;5327457;27;20032;-83
2022/01/21 01:54:12;;;;;;;45.67;11.20;;;;;;;-2.27;100.00;103368.94;5326442;27;20455;-83
2022/01/21 01:56:50;;;;;;;33.05;5.75;;;;;;;-2.47;100.00;103356.69;5327506;27;20063;-83
2022/01/21 01:59:21;;;;;;;23.58;4.22;;;;;;;-2.45;100.00;103361.94;5327952;27;20070;-84
2022/01/21 02:01:56;;;;;;;78.53;21.45;;;;;;;-2.26;100.00;103368.06;5309989;28;20020;-83
2022/01/21 02:04:28;;;;;;;29.38;8.32;;;;;;;-2.51;100.00;103359.28;5325885;27;20045;-83
2022/01/21 02:06:59;;;;;;;56.60;13.52;;;;;;;-2.49;100.00;103360.16;5320866;27;20078;-83
2022/01/21 02:09:31;;;;;;;72.80;17.02;;;;;;;-2.32;100.00;103353.22;5320274;28;20111;-84
2022/01/21 02:12:04;;;;;;;29.30;6.88;;;;;;;-2.45;100.00;103359.31;5317324;27;20449;-83
2022/01/21 02:14:38;;;;;;;34.35;7.30;;;;;;;-2.60;100.00;103362.75;5326209;27;20055;-83
2022/01/21 02:17:18;;;;;;;36.45;8.55;;;;;;;-2.60;100.00;103359.28;5325837;27;20020;-84
2022/01/21 02:22:44;;;;;;;62.65;14.18;;;;;;;-2.38;100.00;103366.31;5326252;27;20028;-84
2022/01/21 02:25:18;;;;;;;30.93;9.00;;;;;;;-2.38;100.00;103357.59;5325559;27;20360;-84
2022/01/21 02:27:52;;;;;;;45.60;11.90;;;;;;;-2.46;100.00;103352.34;5321175;28;20035;-83
2022/01/21 02:30:24;;;;;;;29.23;5.90;;;;;;;-2.68;100.00;103349.69;5325891;27;20027;-84
2022/01/21 02:32:58;;;;;;;88.03;24.02;;;;;;;-2.33;100.00;103361.97;5325968;27;20460;-83
2022/01/21 02:35:29;;;;;;;27.95;6.43;;;;;;;-2.62;100.00;103354.03;5325122;27;20043;-83
2022/01/21 02:38:01;;;;;;;50.17;12.02;;;;;;;-2.63;100.00;103344.47;5321719;27;20024;-83
2022/01/21 02:40:32;;;;;;;74.05;19.92;;;;;;;-2.30;100.00;103350.63;5326202;27;20040;-84
2022/01/21 02:43:03;;;;;;;62.42;15.88;;;;;;;-2.43;100.00;103351.47;5325021;28;20020;-83
2022/01/21 02:45:37;;;;;;;18.73;6.15;;;;;;;-2.60;100.00;103357.53;5324649;27;20031;-84
2022/01/21 02:48:09;;;;;;;36.45;8.57;;;;;;;-2.55;100.00;103363.63;5317246;28;20034;-84
2022/01/21 02:50:41;;;;;;;86.45;23.67;;;;;;;-2.34;100.00;103369.78;5323181;28;20060;-84
2022/01/21 02:55:53;;;;;;;37.83;9.32;;;;;;;-2.73;100.00;103348.78;5316955;28;20059;-84
2022/01/21 02:58:25;;;;;;;33.92;8.00;;;;;;;-2.67;100.00;103372.31;5322653;27;20052;-84
2022/01/21 03:00:56;;;;;;;49.55;12.27;;;;;;;-2.62;100.00;103374.09;5326002;27;20133;-84
2022/01/21 03:03:28;;;;;;;33.72;7.45;;;;;;;-2.73;100.00;103380.16;5325128;28;20068;-84
2022/01/21 03:06:01;;;;;;;42.10;11.05;;;;;;;-2.82;100.00;103374.00;5326441;27;20030;-84
2022/01/21 03:08:32;;;;;;;35.72;9.35;;;;;;;-2.73;100.00;103372.31;5325708;27;20480;-83
2022/01/21 03:11:03;;;;;;;66.03;17.63;;;;;;;-2.60;100.00;103380.19;5326166;27;20031;-83
2022/01/21 03:13:35;;;;;;;36.20;9.20;;;;;;;-2.74;100.00;103375.78;5327104;27;20032;-83
2022/01/21 03:16:07;;;;;;;32.92;9.13;;;;;;;-2.75;100.00;103378.38;5327406;27;20086;-83
2022/01/21 03:18:39;;;;;;;52.63;14.20;;;;;;;-2.63;100.00;103386.28;5328149;27;20051;-83
2022/01/21 03:21:15;;;;;;;37.20;7.78;;;;;;;-2.79;100.00;103376.63;5322913;28;20052;-83
2022/01/21 03:23:51;;;;;;;26.42;5.40;;;;;;;-2.83;100.00;103370.53;5308036;28;20042;-83
2022/01/21 03:26:25;;;;;;;24.00;5.80;;;;;;;-2.82;100.00;103372.28;5327542;27;20081;-83
2022/01/21 03:28:59;;;;;;;46.15;10.25;;;;;;;-2.66;100.00;103374.06;5325198;28;20028;-84
2022/01/21 03:31:31;;;;;;;31.45;5.78;;;;;;;-2.81;100.00;103379.22;5321401;28;20037;-84
2022/01/21 03:34:05;;;;;;;40.30;10.15;;;;;;;-2.74;100.00;103373.16;5313737;28;20021;-82
2022/01/21 03:36:38;;;;;;;34.42;6.93;;;;;;;-2.79;100.00;103392.31;5341364;28;20024;-83
2022/01/21 03:39:10;;;;;;;25.73;5.65;;;;;;;-2.75;100.00;103396.66;5337333;27;20028;-83
2022/01/21 03:41:47;;;;;;;55.03;12.98;;;;;;;-2.54;100.00;103388.91;5342860;27;20472;-83
2022/01/21 03:44:19;;;;;;;28.48;7.55;;;;;;;-2.46;100.00;103394.16;5335238;27;20529;-83
2022/01/21 03:46:53;;;;;;;59.72;17.27;;;;;;;-2.77;100.00;103348.75;5352729;27;20028;-83
2022/01/21 03:49:26;;;;;;;67.50;18.00;;;;;;;-2.51;100.00;103368.03;5330333;27;20017;-83
2022/01/21 03:51:57;;;;;;;47.30;11.75;;;;;;;-2.88;100.00;103357.44;5329463;28;20024;-83
2022/01/21 03:54:32;;;;;;;25.27;5.03;;;;;;;-2.80;100.00;103385.34;5334498;28;20027;-81
2022/01/21 03:57:04;;;;;;;28.65;5.60;;;;;;;-2.77;100.00;103395.78;5350972;27;20031;-83
2022/01/21 03:59:38;;;;;;;37.55;10.07;;;;;;;-2.77;100.00;103383.63;5329418;28;20051;-83
2022/01/21 04:02:10;;;;;;;30.85;6.75;;;;;;;-2.98;100.00;103368.75;5329839;28;20151;-83
2022/01/21 04:04:41;;;;;;;26.67;5.97;;;;;;;-2.91;100.00;103372.22;5326781;28;20500;-83
2022/01/21 04:07:13;;;;;;;47.00;10.95;;;;;;;-2.80;100.00;103391.44;5325592;28;20033;-83
2022/01/21 04:09:44;;;;;;;34.38;7.40;;;;;;;-2.65;100.00;103390.59;5325920;28;20032;-83
2022/01/21 04:12:16;;;;;;;54.13;14.73;;;;;;;-2.42;100.00;103388.09;5327820;28;20024;-83
2022/01/21 04:14:47;;;;;;;31.90;8.60;;;;;;;-2.16;100.00;103389.84;5344922;27;20055;-83
2022/01/21 04:17:19;;;;;;;48.20;13.27;;;;;;;-2.23;100.00;103381.13;5329500;27;20016;-83
2022/01/21 04:19:50;;;;;;;32.50;8.82;;;;;;;-2.28;100.00;103391.59;5324388;28;20031;-83
2022/01/21 04:22:24;;;;;;;56.88;12.63;;;;;;;-2.02;100.00;103382.03;5328238;28;20028;-85
2022/01/21 04:24:56;;;;;;;25.67;5.57;;;;;;;-2.25;100.00;103375.03;5327465;27;20047;-83
2022/01/21 04:27:27;;;;;;;24.13;6.22;;;;;;;-2.11;100.00;103388.97;5328849;27;20028;-84
2022/01/21 04:29:59;;;;;;;53.15;13.60;;;;;;;-1.94;100.00;103367.22;5328637;27;20027;-84
2022/01/21 04:32:33;;;;;;;25.70;5.75;;;;;;;-2.24;100.00;103389.84;5327961;27;20344;-83
2022/01/21 04:35:07;;;;;;;36.53;9.30;;;;;;;-2.26;100.00;103383.75;5327767;27;20023;-83
2022/01/21 04:37:45;;;;;;;30.42;7.82;;;;;;;-2.27;100.00;103368.94;5328201;27;20036;-84
2022/01/21 04:40:19;;;;;;;26.30;6.18;;;;;;;-2.43;100.00;103380.25;5328882;27;20032;-83
2022/01/21 04:48:30;;;;;;;39.88;11.45;;;;;;;-2.33;100.00;103388.09;5327287;28;20040;-84
2022/01/21 04:51:21;;;;;;;26.55;5.32;;;;;;;-2.42;100.00;103387.19;5324741;27;20022;-84
2022/01/21 04:53:53;;;;;;;30.65;9.18;;;;;;;-2.36;100.00;103387.22;5327326;27;20020;-84
2022/01/21 04:56:24;;;;;;;26.40;5.07;;;;;;;-2.62;100.00;103384.53;5327653;27;20042;-84
2022/01/21 04:58:56;;;;;;;18.80;4.07;;;;;;;-2.58;100.00;103381.91;5327423;27;20039;-84
2022/01/21 05:01:27;;;;;;;23.65;3.83;;;;;;;-2.69;100.00;103378.41;5327261;27;20468;-84
2022/01/21 05:03:59;;;;;;;27.75;5.38;;;;;;;-2.66;100.00;103378.44;5325155;28;20040;-84
2022/01/21 05:06:30;;;;;;;26.60;6.13;;;;;;;-2.56;100.00;103376.69;5321243;28;20021;-84
2022/01/21 05:09:02;;;;;;;13.88;3.63;;;;;;;-2.57;100.00;103370.59;5313959;28;20526;-84
2022/01/21 05:11:38;;;;;;;26.77;6.65;;;;;;;-2.54;100.00;103364.50;5326752;27;20073;-84
2022/01/21 05:14:16;;;;;;;30.77;6.63;;;;;;;-2.54;100.00;103359.28;5322172;27;20514;-84
2022/01/21 05:16:50;;;;;;;32.40;7.88;;;;;;;-2.50;100.00;103366.28;5321300;27;20249;-85
2022/01/21 05:19:21;;;;;;;30.85;7.63;;;;;;;-2.44;100.00;103368.88;5326179;27;20032;-84
2022/01/21 05:21:53;;;;;;;32.83;7.72;;;;;;;-2.46;100.00;103365.41;5319385;28;20024;-84
2022/01/21 05:24:24;;;;;;;23.08;5.68;;;;;;;-2.53;100.00;103367.13;5326488;27;20193;-84
2022/01/21 05:26:58;;;;;;;35.78;6.40;;;;;;;-2.59;100.00;103379.31;5325728;28;20026;-84
2022/01/21 05:29:32;;;;;;;23.13;6.57;;;;;;;-2.55;100.00;103370.63;5325483;27;20123;-84
2022/01/21 05:32:06;;;;;;;37.45;9.63;;;;;;;-2.45;100.00;103380.22;5325248;27;20024;-84
2022/01/21 05:34:37;;;;;;;34.63;9.35;;;;;;;-2.51;100.00;103365.41;5324113;28;20073;-84
2022/01/21 05:37:08;;;;;;;28.05;7.90;;;;;;;-2.62;100.00;103382.78;5325451;27;20460;-84
2022/01/21 05:39:40;;;;;;;31.80;7.50;;;;;;;-2.66;100.00;103388.88;5326074;27;20404;-84
2022/01/21 05:42:11;;;;;;;21.80;7.05;;;;;;;-2.66;100.00;103392.34;5324397;27;20050;-84
2022/01/21 05:47:13;;;;;;;38.45;9.85;;;;;;;-2.04;100.00;103383.78;5325390;27;20032;-84
2022/01/21 05:49:45;;;;;;;34.45;10.48;;;;;;;-1.84;100.00;103379.44;5326088;27;20044;-84
2022/01/21 05:52:18;;;;;;;43.35;11.07;;;;;;;-2.01;100.00;103376.81;5322386;27;20188;-84
2022/01/21 05:54:49;;;;;;;34.83;10.77;;;;;;;-2.10;100.00;103380.28;5325390;27;20048;-84
2022/01/21 05:57:20;;;;;;;40.97;10.13;;;;;;;-2.28;100.00;103383.75;5325751;27;20062;-83
2022/01/21 05:59:52;;;;;;;36.10;10.38;;;;;;;-2.33;100.00;103393.31;5325484;27;20488;-84
2022/01/21 06:02:23;;;;;;;39.60;11.18;;;;;;;-2.40;100.00;103383.72;5321391;28;20040;-83
2022/01/21 06:04:55;;;;;;;34.70;12.38;;;;;;;-2.42;100.00;103393.31;5325652;27;20402;-84
2022/01/21 06:07:27;;;;;;;39.65;11.15;;;;;;;-2.47;100.00;103395.03;5321247;27;20020;-85
2022/01/21 06:09:58;;;;;;;43.60;12.57;;;;;;;-2.48;100.00;103399.38;5322941;27;20054;-84
2022/01/21 06:12:29;;;;;;;35.13;12.20;;;;;;;-2.49;100.00;103388.91;5323397;27;20020;-84
2022/01/21 06:15:01;;;;;;;36.85;13.45;;;;;;;-2.53;100.00;103395.00;5323930;27;20045;-84
2022/01/21 06:17:32;;;;;;;40.22;13.60;;;;;;;-2.17;100.00;103375.91;5322089;28;20016;-82
2022/01/21 06:20:04;;;;;;;45.85;15.85;;;;;;;-1.85;100.00;103406.44;5324268;28;20032;-83
2022/01/21 06:22:35;;;;;;;41.13;17.90;;;;;;;-1.76;100.00;103405.59;5322902;27;20020;-83
2022/01/21 06:25:07;;;;;;;56.65;22.60;;;;;;;-1.61;100.00;103400.34;5314344;27;20021;-82
2022/01/21 06:27:39;;;;;;;43.30;18.65;;;;;;;-1.34;100.00;103393.31;5318975;28;20027;-82
2022/01/21 06:30:11;;;;;;;55.83;21.48;;;;;;;-1.55;100.00;103404.69;5319030;28;20028;-82
2022/01/21 06:32:43;;;;;;;53.78;20.02;;;;;;;-1.33;100.00;103421.25;5311516;28;20035;-83
2022/01/21 06:35:14;;;;;;;52.63;20.75;;;;;;;-1.31;100.00;103424.75;5325759;27;20404;-82
2022/01/21 06:37:45;;;;;;;58.00;23.52;;;;;;;-1.37;100.00;103430.88;5325072;27;20067;-82
2022/01/21 06:40:20;;;;;;;54.83;22.73;;;;;;;-1.41;100.00;103423.88;5325442;27;20090;-82
2022/01/21 06:42:52;;;;;;;54.58;22.25;;;;;;;-1.42;100.00;103435.25;5325920;27;20012;-82
2022/01/21 06:45:23;;;;;;;57.08;23.38;;;;;;;-1.43;100.00;103446.56;5324661;28;20407;-82
2022/01/21 06:47:58;;;;;;;52.80;23.25;;;;;;;-1.35;100.00;103441.31;5325982;27;20077;-82
2022/01/21 06:50:31;;;;;;;61.83;24.55;;;;;;;-1.47;100.00;103442.22;5324920;27;20066;-82
2022/01/21 06:53:03;;;;;;;59.22;23.33;;;;;;;-1.39;100.00;103437.84;5324312;27;20032;-82
2022/01/21 06:55:35;;;;;;;66.55;25.17;;;;;;;-1.35;100.00;103447.44;5325495;27;20043;-84
2022/01/21 06:58:07;;;;;;;63.03;26.55;;;;;;;-1.23;100.00;103445.66;5304820;28;20044;-83
2022/01/21 07:00:38;;;;;;;59.33;24.48;;;;;;;-1.33;100.00;103440.47;5322699;27;20499;-84
2022/01/21 07:03:09;;;;;;;52.88;24.85;;;;;;;-1.24;100.00;103449.19;5327542;27;20067;-83
2022/01/21 07:05:46;;;;;;;58.92;25.90;;;;;;;-1.16;100.00;103447.41;5327039;27;20012;-84
2022/01/21 07:08:18;;;;;;;68.63;27.60;;;;;;;-1.11;100.00;103453.50;5324973;27;20593;-84
2022/01/21 07:10:49;;;;;;;66.57;28.40;;;;;;;-1.08;100.00;103464.00;5324454;27;20154;-85
2022/01/21 07:13:20;;;;;;;57.95;25.88;;;;;;;-0.76;100.00;103470.88;5325141;27;20020;-84
2022/01/21 07:15:52;;;;;;;73.10;28.83;;;;;;;-1.01;100.00;103465.72;5325562;27;20044;-84
2022/01/21 07:18:23;;;;;;;65.22;29.05;;;;;;;-0.93;100.00;103478.78;5325984;27;20142;-83
2022/01/21 07:20:55;;;;;;;63.88;29.48;;;;;;;-0.88;100.00;103468.31;5326208;27;20482;-84
2022/01/21 07:23:26;;;;;;;63.75;30.05;;;;;;;-0.90;100.00;103464.81;5324820;27;20039;-83
2022/01/21 07:25:58;;;;;;;62.17;29.92;;;;;;;-0.90;100.00;103464.81;5325419;27;20028;-83
2022/01/21 07:28:29;;;;;;;68.05;29.85;;;;;;;-0.86;100.00;103472.69;5325012;27;20467;-83
2022/01/21 07:31:00;;;;;;;62.25;28.95;;;;;;;-0.87;100.00;103468.31;5325475;27;20025;-83
2022/01/21 07:33:32;;;;;;;63.13;29.67;;;;;;;-0.78;100.00;103473.50;5325132;27;20055;-84
2022/01/21 07:36:04;;;;;;;60.97;28.13;;;;;;;-0.63;100.00;103476.94;5324782;27;20024;-84
2022/01/21 07:38:38;;;;;;;64.68;29.00;;;;;;;-0.67;100.00;103491.81;5324154;27;20032;-84
2022/01/21 07:41:10;;;;;;;70.57;30.73;;;;;;;-0.55;100.00;103490.06;5324568;27;20048;-84
2022/01/21 07:43:41;;;;;;;51.03;24.95;;;;;;;-0.30;100.00;103486.47;5325121;27;20048;-83
2022/01/21 07:46:12;;;;;;;68.63;31.23;;;;;;;-0.62;100.00;103483.94;5324643;27;20069;-83
2022/01/21 07:48:44;;;;;;;62.53;28.70;;;;;;;-0.55;100.00;103469.94;5324944;27;20059;-84
2022/01/21 07:51:15;;;;;;;63.13;29.15;;;;;;;-0.62;100.00;103478.72;5324577;27;20381;-84
2022/01/21 07:53:46;;;;;;;55.10;27.23;;;;;;;-0.62;100.00;103489.19;5324507;27;20421;-84
2022/01/21 07:56:18;;;;;;;53.78;24.40;;;;;;;-0.42;100.00;103482.13;5324610;27;20437;-84
2022/01/21 07:58:51;;;;;;;68.15;29.20;;;;;;;-0.68;100.00;103474.38;5322372;27;20108;-84
2022/01/21 08:01:24;;;;;;;54.13;26.40;;;;;;;-0.63;100.00;103479.56;5324252;27;20107;-84
2022/01/21 08:03:55;;;;;;;61.72;28.95;;;;;;;-0.64;100.00;103470.84;5314731;28;20048;-83
2022/01/21 08:06:27;;;;;;;56.05;28.15;;;;;;;-0.53;100.00;103456.81;5322983;28;20020;-84
2022/01/21 08:08:59;;;;;;;62.40;29.45;;;;;;;-0.69;100.00;103456.88;5322769;27;20032;-84
2022/01/21 08:11:31;;;;;;;49.80;26.63;;;;;;;-0.64;100.00;103473.47;5324229;27;20020;-84
2022/01/21 08:14:02;;;;;;;53.60;27.45;;;;;;;-0.58;100.00;103465.59;5324370;27;20380;-84
2022/01/21 08:16:35;;;;;;;56.42;28.38;;;;;;;-0.49;100.00;103464.69;5323833;28;20361;-83
2022/01/21 08:19:07;;;;;;;51.85;28.08;;;;;;;-0.33;100.00;103467.22;5323844;27;20036;-83
2022/01/21 08:21:39;;;;;;;56.13;28.10;;;;;;;-0.21;100.00;103456.66;5323989;27;20559;-83
2022/01/21 08:24:10;;;;;;;68.30;35.22;;;;;;;-0.39;100.00;103460.25;5324790;27;20028;-84
2022/01/21 08:26:42;;;;;;;72.45;35.58;;;;;;;-0.34;100.00;103462.88;5327794;27;20020;-83
2022/01/21 08:29:13;;;;;;;64.32;33.85;;;;;;;-0.38;100.00;103456.75;5327493;27;20028;-83
2022/01/21 08:31:45;;;;;;;69.63;31.35;;;;;;;-0.49;100.00;103450.69;5328088;27;20029;-84
2022/01/21 08:34:16;;;;;;;50.95;26.83;;;;;;;-0.57;100.00;103443.72;5327017;27;20047;-83
2022/01/21 08:36:49;;;;;;;46.90;24.67;;;;;;;-0.56;100.00;103447.25;5327428;27;20008;-84
2022/01/21 08:39:20;;;;;;;49.28;24.50;;;;;;;-0.57;100.00;103448.09;5327860;27;20372;-83
2022/01/21 08:41:52;;;;;;;38.83;22.70;;;;;;;-0.35;100.00;103468.97;5326074;28;20073;-83
2022/01/21 08:44:23;;;;;;;55.50;26.08;;;;;;;-0.45;100.00;103470.78;5328254;28;20509;-84
2022/01/21 08:46:54;;;;;;;47.75;24.88;;;;;;;-0.28;100.00;103474.19;5328879;27;20104;-83
2022/01/21 08:49:32;;;;;;;46.08;25.27;;;;;;;-0.18;100.00;103468.91;5328134;28;20024;-83
2022/01/21 08:52:03;;;;;;;39.08;20.77;;;;;;;0.22;100.00;103461.63;5321697;28;20027;-84
2022/01/21 08:54:35;;;;;;;51.60;28.25;;;;;;;-0.06;100.00;103468.81;5321014;28;20028;-83
2022/01/21 08:57:06;;;;;;;47.92;27.08;;;;;;;-0.02;100.00;103479.31;5328149;28;20024;-84
2022/01/21 08:59:37;;;;;;;41.85;24.75;;;;;;;-0.13;100.00;103480.25;5327492;28;20028;-84
2022/01/21 09:02:09;;;;;;;43.80;23.25;;;;;;;-0.09;100.00;103485.47;5326520;27;20024;-83
2022/01/21 09:04:40;;;;;;;47.67;22.73;;;;;;;0.19;100.00;103482.66;5335716;27;20431;-84
2022/01/21 09:07:12;;;;;;;47.38;23.88;;;;;;;0.16;100.00;103477.44;5327956;27;20020;-84
2022/01/21 09:09:43;;;;;;;43.92;23.70;;;;;;;0.16;100.00;103454.69;5327571;27;20043;-83
2022/01/21 09:12:14;;;;;;;42.88;23.13;;;;;;;0.22;100.00;103453.75;5328591;27;20028;-84
2022/01/21 09:14:46;;;;;;;38.17;21.52;;;;;;;0.25;100.00;103448.50;5326740;28;20020;-83
2022/01/21 09:17:18;;;;;;;35.85;20.83;;;;;;;0.36;100.00;103435.28;5330154;27;20023;-84
2022/01/21 09:19:49;;;;;;;39.45;20.88;;;;;;;0.40;100.00;103449.25;5327612;27;20031;-84
2022/01/21 09:22:20;;;;;;;39.65;21.60;;;;;;;0.25;100.00;103435.38;5326981;27;20379;-83
2022/01/21 09:24:52;;;;;;;37.42;20.52;;;;;;;0.37;100.00;103437.03;5328477;27;20024;-83
2022/01/21 09:27:23;;;;;;;39.20;20.80;;;;;;;0.37;100.00;103440.50;5325878;27;20024;-83
2022/01/21 09:29:54;;;;;;;37.67;19.38;;;;;;;0.44;100.00;103450.94;5324879;27;20043;-83
2022/01/21 09:32:26;;;;;;;37.15;19.58;;;;;;;0.37;100.00;103437.03;5326011;27;20016;-83
2022/01/21 09:34:57;;;;;;;37.55;19.23;;;;;;;0.47;100.00;103464.06;5325963;27;20399;-83
2022/01/21 09:37:31;;;;;;;37.83;18.55;;;;;;;0.65;100.00;103437.66;5325375;27;20036;-83
2022/01/21 09:40:05;;;;;;;32.22;19.13;;;;;;;0.54;100.00;103448.25;5324800;27;20051;-83
2022/01/21 09:42:37;;;;;;;26.92;15.95;;;;;;;0.86;100.00;103452.31;5315987;28;20035;-83
2022/01/21 09:45:14;;;;;;;33.45;17.48;;;;;;;0.65;100.00;103457.75;5315308;28;20419;-83
2022/01/21 09:47:50;;;;;;;34.78;18.98;;;;;;;0.83;100.00;103454.13;5326616;27;20055;-83
2022/01/21 09:50:21;;;;;;;34.17;18.10;;;;;;;0.99;100.00;103458.31;5326943;27;20464;-84
2022/01/21 09:52:53;;;;;;;38.80;19.25;;;;;;;1.01;100.00;103474.94;5316351;27;20054;-84
2022/01/21 09:55:25;;;;;;;43.45;18.05;;;;;;;1.14;100.00;103470.44;5306616;28;20062;-84
2022/01/21 09:57:57;;;;;;;34.85;17.45;;;;;;;1.18;100.00;103466.00;5320962;28;20047;-83
2022/01/21 10:00:28;;;;;;;33.65;18.50;;;;;;;1.06;100.00;103467.00;5321211;27;20045;-83
2022/01/21 10:03:03;;;;;;;33.50;16.17;;;;;;;1.15;100.00;103480.03;5318403;28;20137;-83
2022/01/21 10:05:35;;;;;;;37.88;17.60;;;;;;;1.34;100.00;103483.34;5319076;28;20020;-83
2022/01/21 10:08:08;;;;;;;31.50;17.17;;;;;;;1.31;100.00;103486.00;5312758;27;20030;-83
2022/01/21 10:10:43;;;;;;;42.05;16.05;;;;;;;1.45;100.00;103486.69;5322119;28;20361;-84
2022/01/21 10:13:17;;;;;;;31.83;15.18;;;;;;;1.67;100.00;103497.84;5326232;27;20784;-84
2022/01/21 10:15:49;;;;;;;33.17;14.65;;;;;;;2.30;100.00;103484.66;5323989;27;20032;-84
2022/01/21 10:18:22;;;;;;;36.63;17.02;;;;;;;2.71;100.00;103505.06;5321823;27;20357;-84
2022/01/21 10:21:11;;;;;;;33.92;15.77;;;;;;;3.28;100.00;103498.78;5324421;27;20064;-84
2022/01/21 10:23:43;;;;;;;29.02;14.38;;;;;;;3.57;100.00;103500.78;5325250;27;20463;-84
2022/01/21 10:26:18;;;;;;;25.58;12.95;;;;;;;3.69;100.00;103515.53;5330774;27;20028;-84
2022/01/21 10:28:54;;;;;;;26.65;10.93;;;;;;;3.62;100.00;103507.78;5327780;27;20038;-84
2022/01/21 10:31:27;;;;;;;19.08;9.07;;;;;;;3.32;100.00;103512.78;5326325;27;20434;-84
2022/01/21 10:34:03;;;;;;;16.88;7.47;;;;;;;3.13;100.00;103517.53;5327736;27;20398;-84
2022/01/21 10:36:43;;;;;;;16.43;7.27;;;;;;;3.10;100.00;103512.28;5326135;28;20103;-85
2022/01/21 10:39:27;;;;;;;19.25;8.00;;;;;;;3.22;100.00;103512.06;5326036;27;20412;-84
2022/01/21 10:42:00;;;;;;;15.18;7.93;;;;;;;3.67;100.00;103508.56;5324899;28;20036;-84
2022/01/21 10:44:32;;;;;;;20.50;8.63;;;;;;;3.91;100.00;103510.66;5326705;27;20020;-84
2022/01/21 10:47:11;;;;;;;17.50;8.32;;;;;;;4.87;100.00;103519.81;5326583;27;20020;-84
2022/01/21 10:49:57;;;;;;;16.33;6.10;;;;;;;5.33;100.00;103517.72;5324662;28;20673;-84
2022/01/21 10:52:42;;;;;;;19.27;5.30;;;;;;;5.29;100.00;103505.44;5324348;27;20563;-84
2022/01/21 10:55:32;;;;;;;16.95;5.38;;;;;;;5.65;100.00;103505.31;5326239;27;20407;-85
2022/01/21 10:58:12;;;;;;;16.10;4.50;;;;;;;5.60;100.00;103501.94;5323012;27;20016;-84
2022/01/21 11:01:10;;;;;;;21.52;4.22;;;;;;;5.77;100.00;103504.97;5319314;27;20024;-84
2022/01/21 11:04:00;;;;;;;13.88;3.40;;;;;;;5.77;100.00;103496.16;5326566;27;20048;-84
2022/01/21 11:06:48;;;;;;;13.20;4.30;;;;;;;5.42;100.00;103483.03;5304223;28;20389;-83
2022/01/21 11:09:25;;;;;;;11.77;3.15;;;;;;;5.11;100.00;103483.88;5302420;28;20020;-84
2022/01/21 11:12:11;;;;;;;14.13;3.50;;;;;;;5.03;100.00;103470.03;5308480;28;20029;-85
2022/01/21 11:14:55;;;;;;;18.58;4.22;;;;;;;4.84;100.00;103471.41;5325182;27;20024;-85
2022/01/21 11:17:27;;;;;;;17.65;4.35;;;;;;;4.83;100.00;103461.75;5322867;28;20028;-85
2022/01/21 11:20:16;;;;;;;14.13;4.53;;;;;;;5.39;100.00;103461.94;5324276;28;20517;-85
2022/01/21 11:22:59;;;;;;;13.20;4.40;;;;;;;6.14;100.00;103447.34;5322170;28;20411;-85
2022/01/21 11:25:47;;;;;;;13.65;3.95;;;;;;;7.07;100.00;103442.38;5324895;28;20111;-85
2022/01/21 11:28:21;;;;;;;16.50;3.63;;;;;;;7.64;100.00;103445.53;5325102;27;20506;-85
2022/01/21 11:30:54;;;;;;;16.90;3.65;;;;;;;7.43;100.00;103441.94;5324853;27;20028;-85
2022/01/21 11:33:25;;;;;;;11.77;3.45;;;;;;;7.42;100.00;103430.44;5324809;27;20411;-84
2022/01/21 11:35:57;;;;;;;15.00;3.47;;;;;;;7.06;100.00;103422.06;5324286;27;20020;-84
2022/01/21 11:38:29;;;;;;;15.90;3.75;;;;;;;7.07;100.00;103419.34;5324363;27;20040;-85
2022/01/21 11:41:02;;;;;;;18.00;3.13;;;;;;;6.85;100.00;103426.38;5323149;28;20383;-85
2022/01/21 11:43:36;;;;;;;15.20;3.42;;;;;;;6.53;100.00;103431.03;5323208;28;20020;-85
2022/01/21 11:49:00;;;;;;;10.48;3.53;;;;;;;5.94;100.00;103424.09;5325562;28;20036;-84
2022/01/21 11:51:34;;;;;;;12.70;3.47;;;;;;;5.58;100.00;103421.69;5322949;27;20028;-84
2022/01/21 11:54:09;;;;;;;16.40;4.25;;;;;;;5.57;100.00;103422.59;5319136;27;20024;-84
2022/01/21 11:56:46;;;;;;;11.70;3.50;;;;;;;5.51;100.00;103426.31;5322720;27;20024;-84
2022/01/21 11:59:26;;;;;;;15.85;4.25;;;;;;;5.28;100.00;103419.06;5324189;27;20120;-85
2022/01/21 12:02:15;;;;;;;11.18;3.42;;;;;;;5.06;100.00;103424.09;5325266;27;20036;-85
2022/01/21 12:04:57;;;;;;;11.73;2.95;;;;;;;5.18;100.00;103428.16;5323287;27;20070;-84
2022/01/21 12:07:34;;;;;;;15.30;3.10;;;;;;;5.00;100.00;103416.34;5334172;27;20381;-85
2022/01/21 12:10:11;;;;;;;12.40;2.95;;;;;;;5.09;100.00;103416.06;5305922;28;20025;-84
2022/01/21 12:12:49;;;;;;;;;;;;;;;5.54;100.00;103418.28;5315960;28;20108;-85
2022/01/21 12:18:52;;;;;;;12.90;2.75;;;;;;;5.18;100.00;103401.69;5329031;28;20085;-85
2022/01/21 12:21:29;;;;;;;11.73;2.95;;;;;;;4.97;100.00;103390.81;5324651;27;20043;-85
2022/01/21 12:24:00;;;;;;;10.32;3.00;;;;;;;4.83;100.00;103388.56;5325088;27;20024;-85
2022/01/21 12:26:32;;;;;;;13.25;3.78;;;;;;;4.76;100.00;103399.34;5327526;28;20017;-85
2022/01/21 12:29:04;;;;;;;16.38;3.38;;;;;;;4.75;100.00;103393.19;5330093;27;20483;-85